createdAt,value
2022-10-05T00:01:35.293Z,15.13
2022-10-05T00:04:25.897Z,16.60
2022-10-05T00:06:59.208Z,17.17
2022-10-05T00:09:25.787Z,15.80
2022-10-05T00:11:52.267Z,11.40
2022-10-05T00:14:34.989Z,13.20
2022-10-05T00:17:04.454Z,13.10
2022-10-05T00:19:39.012Z,13.65
2022-10-05T00:22:14.764Z,12.48
2022-10-05T00:24:41.322Z,10.93
2022-10-05T00:27:21.364Z,13.98
2022-10-05T00:29:50.440Z,12.20
2022-10-05T00:32:17.320Z,11.43
2022-10-05T00:34:45.145Z,14.60
2022-10-05T00:37:13.438Z,10.85
2022-10-05T00:39:41.073Z,14.95
2022-10-05T00:42:28.752Z,11.00
2022-10-05T00:45:05.746Z,10.60
2022-10-05T00:47:38.537Z,8.80
2022-10-05T00:50:13.759Z,12.10
2022-10-05T00:53:02.072Z,15.45
2022-10-05T00:55:47.385Z,10.00
2022-10-05T00:58:49.060Z,12.15
2022-10-05T01:01:24.239Z,9.70
2022-10-05T01:04:25.994Z,10.02
2022-10-05T01:07:22.382Z,15.30
2022-10-05T01:10:09.671Z,17.20
2022-10-05T01:12:54.131Z,12.35
2022-10-05T01:15:45.367Z,11.77
2022-10-05T01:18:14.562Z,12.93
2022-10-05T01:20:50.025Z,14.90
2022-10-05T01:23:32.870Z,11.15
2022-10-05T01:26:26.560Z,14.52
2022-10-05T01:29:10.382Z,13.57
2022-10-05T01:31:56.234Z,10.25
2022-10-05T01:34:31.499Z,13.05
2022-10-05T01:37:16.916Z,16.17
2022-10-05T01:39:45.965Z,13.77
2022-10-05T01:42:41.163Z,14.18
2022-10-05T01:45:52.860Z,15.20
2022-10-05T01:48:44.260Z,20.30
2022-10-05T01:51:22.243Z,12.67
2022-10-05T01:54:00.218Z,17.58
2022-10-05T01:56:45.447Z,14.30
2022-10-05T01:59:18.942Z,15.50
2022-10-05T02:01:55.603Z,9.90
2022-10-05T02:07:38.747Z,13.45
2022-10-05T02:10:08.749Z,12.32
2022-10-05T02:12:38.372Z,11.38
2022-10-05T02:15:19.633Z,11.27
2022-10-05T02:17:50.408Z,14.23
2022-10-05T02:20:25.326Z,13.73
2022-10-05T02:22:56.082Z,15.65
2022-10-05T02:25:28.839Z,17.20
2022-10-05T02:28:01.976Z,17.52
2022-10-05T02:30:31.508Z,13.70
2022-10-05T02:33:02.657Z,14.68
2022-10-05T02:35:29.107Z,13.85
2022-10-05T02:38:11.704Z,12.18
2022-10-05T02:40:50.035Z,13.05
2022-10-05T02:43:38.941Z,12.55
2022-10-05T02:46:33.688Z,16.38
2022-10-05T02:49:31.116Z,12.82
2022-10-05T02:52:10.914Z,11.90
2022-10-05T02:54:46.179Z,17.35
2022-10-05T02:57:28.326Z,12.48
2022-10-05T03:00:25.844Z,22.60
2022-10-05T03:03:08.764Z,11.75
2022-10-05T03:05:48.246Z,12.30
2022-10-05T03:08:20.359Z,11.07
2022-10-05T03:11:00.103Z,11.65
2022-10-05T03:13:34.256Z,15.43
2022-10-05T03:16:18.439Z,13.50
2022-10-05T03:19:12.907Z,11.52
2022-10-05T03:22:07.907Z,11.18
2022-10-05T03:24:56.300Z,12.68
2022-10-05T03:27:36.546Z,12.05
2022-10-05T03:30:15.284Z,14.93
2022-10-05T03:32:55.906Z,13.43
2022-10-05T03:35:31.655Z,14.43
2022-10-05T03:38:08.167Z,13.40
2022-10-05T03:40:54.350Z,11.55
2022-10-05T03:43:29.829Z,14.20
2022-10-05T03:46:12.594Z,11.60
2022-10-05T03:49:27.559Z,11.20
2022-10-05T03:52:02.566Z,15.77
2022-10-05T03:54:38.487Z,17.25
2022-10-05T03:57:14.400Z,14.20
2022-10-05T03:59:55.856Z,13.75
2022-10-05T04:02:49.310Z,10.80
2022-10-05T04:05:29.863Z,11.20
2022-10-05T04:08:06.280Z,12.85
2022-10-05T04:10:52.860Z,16.17
2022-10-05T04:13:30.165Z,15.55
2022-10-05T04:16:24.927Z,13.98
2022-10-05T04:19:01.233Z,12.00
2022-10-05T04:21:38.172Z,15.23
2022-10-05T04:24:30.964Z,17.40
2022-10-05T04:27:44.131Z,12.70
2022-10-05T04:30:17.600Z,13.70
2022-10-05T04:32:48.351Z,13.63
2022-10-05T04:35:17.523Z,14.13
2022-10-05T04:37:55.610Z,12.00
2022-10-05T04:40:55.022Z,13.55
2022-10-05T04:43:30.010Z,14.98
2022-10-05T04:46:10.688Z,12.20
2022-10-05T04:48:58.532Z,18.27
2022-10-05T04:52:02.780Z,12.55
2022-10-05T04:55:06.959Z,14.20
2022-10-05T04:57:45.535Z,15.70
2022-10-05T05:00:41.178Z,17.52
2022-10-05T05:03:20.818Z,14.45
2022-10-05T05:06:17.211Z,17.35
2022-10-05T05:09:15.143Z,15.23
2022-10-05T05:12:05.576Z,16.20
2022-10-05T05:15:04.418Z,13.25
2022-10-05T05:17:39.719Z,17.08
2022-10-05T05:20:49.479Z,17.70
2022-10-05T05:23:30.373Z,17.48
2022-10-05T05:26:16.871Z,17.75
2022-10-05T05:28:54.614Z,20.63
2022-10-05T05:31:46.593Z,12.60
2022-10-05T05:34:43.095Z,14.73
2022-10-05T05:37:15.486Z,15.52
2022-10-05T05:40:25.044Z,19.60
2022-10-05T05:43:03.223Z,17.00
2022-10-05T05:45:41.010Z,18.95
2022-10-05T05:48:15.285Z,15.75
2022-10-05T05:51:03.570Z,16.02
2022-10-05T05:53:36.787Z,17.08
2022-10-05T05:56:20.955Z,16.38
2022-10-05T05:58:59.524Z,12.98
2022-10-05T06:01:43.527Z,15.43
2022-10-05T06:04:18.440Z,15.30
2022-10-05T06:06:50.260Z,19.50
2022-10-05T06:11:55.936Z,21.00
2022-10-05T06:14:29.139Z,18.10
2022-10-05T06:17:26.367Z,22.52
2022-10-05T06:20:02.448Z,21.13
2022-10-05T06:22:39.139Z,24.15
2022-10-05T06:25:34.035Z,19.75
2022-10-05T06:28:12.137Z,21.35
2022-10-05T06:30:53.251Z,22.05
2022-10-05T06:33:42.096Z,21.48
2022-10-05T06:36:32.810Z,17.42
2022-10-05T06:39:17.635Z,20.48
2022-10-05T06:42:14.737Z,17.77
2022-10-05T06:44:54.542Z,18.33
2022-10-05T06:47:42.346Z,16.67
2022-10-05T06:50:40.614Z,52.75
2022-10-05T06:53:57.028Z,17.38
2022-10-05T06:56:33.028Z,16.05
2022-10-05T06:59:21.112Z,20.17
2022-10-05T07:02:30.456Z,23.55
2022-10-05T07:05:10.769Z,19.08
2022-10-05T07:07:47.355Z,25.95
2022-10-05T07:10:41.536Z,18.90
2022-10-05T07:13:17.067Z,15.55
2022-10-05T07:16:06.015Z,25.98
2022-10-05T07:18:49.787Z,17.95
2022-10-05T07:21:51.602Z,16.70
2022-10-05T07:24:38.931Z,17.42
2022-10-05T07:27:14.586Z,25.60
2022-10-05T07:29:47.895Z,17.02
2022-10-05T07:32:39.752Z,15.73
2022-10-05T07:35:57.542Z,16.02
2022-10-05T07:38:32.992Z,15.50
2022-10-05T07:41:06.588Z,19.35
2022-10-05T07:44:02.003Z,17.83
2022-10-05T07:47:17.640Z,15.43
2022-10-05T07:49:52.557Z,16.52
2022-10-05T07:52:56.010Z,16.27
2022-10-05T07:55:32.222Z,17.48
2022-10-05T07:58:29.463Z,12.30
2022-10-05T08:01:19.120Z,23.80
2022-10-05T08:03:45.689Z,17.33
2022-10-05T08:06:38.124Z,16.60
2022-10-05T08:09:22.493Z,19.42
2022-10-05T08:11:52.273Z,25.55
2022-10-05T08:14:28.797Z,25.73
2022-10-05T08:16:59.750Z,21.25
2022-10-05T08:19:32.446Z,28.43
2022-10-05T08:22:05.076Z,30.42
2022-10-05T08:24:34.359Z,15.85
2022-10-05T08:27:20.512Z,26.45
2022-10-05T08:29:58.460Z,17.58
2022-10-05T08:32:30.500Z,16.75
2022-10-05T08:34:59.949Z,24.02
2022-10-05T08:37:35.498Z,20.17
2022-10-05T08:40:35.948Z,22.23
2022-10-05T08:43:41.549Z,28.83
2022-10-05T08:46:53.243Z,23.63
2022-10-05T08:49:22.863Z,25.83
2022-10-05T08:51:56.787Z,20.33
2022-10-05T08:54:38.279Z,18.77
2022-10-05T08:57:29.508Z,20.17
2022-10-05T09:00:12.659Z,27.20
2022-10-05T09:03:01.042Z,21.60
2022-10-05T09:06:02.704Z,19.15
2022-10-05T09:08:47.796Z,13.20
2022-10-05T09:11:35.974Z,21.67
2022-10-05T09:14:11.469Z,19.88
2022-10-05T09:16:46.920Z,19.30
2022-10-05T09:19:51.011Z,23.73
2022-10-05T09:22:38.887Z,22.17
2022-10-05T09:25:18.504Z,19.50
2022-10-05T09:28:01.893Z,22.30
2022-10-05T09:30:40.218Z,13.30
2022-10-05T09:37:06.904Z,24.55
2022-10-05T09:40:01.186Z,22.33
2022-10-05T09:43:01.684Z,19.92
2022-10-05T09:45:36.817Z,16.35
2022-10-05T09:48:37.754Z,16.77
2022-10-05T09:51:19.706Z,18.70
2022-10-05T09:56:49.847Z,17.95
2022-10-05T09:59:46.265Z,17.10
2022-10-05T10:02:50.785Z,16.48
2022-10-05T10:05:47.458Z,18.65
2022-10-05T10:08:26.180Z,17.70
2022-10-05T10:11:29.585Z,15.68
2022-10-05T10:15:09.750Z,13.85
2022-10-05T10:18:06.325Z,15.15
2022-10-05T10:20:47.661Z,13.30
2022-10-05T10:23:38.499Z,15.65
2022-10-05T10:26:25.879Z,16.10
2022-10-05T10:29:19.717Z,13.25
2022-10-05T10:32:31.095Z,11.32
2022-10-05T10:35:00.556Z,11.85
2022-10-05T10:37:36.132Z,12.82
2022-10-05T10:40:20.276Z,13.80
2022-10-05T10:43:18.627Z,10.65
2022-10-05T10:45:56.673Z,13.68
2022-10-05T10:48:28.897Z,18.00
2022-10-05T10:50:58.251Z,13.98
2022-10-05T10:54:03.620Z,11.93
2022-10-05T10:56:45.107Z,14.13
2022-10-05T10:59:49.956Z,13.60
2022-10-05T11:02:49.859Z,15.85
2022-10-05T11:05:22.245Z,12.77
2022-10-05T11:08:13.529Z,12.52
2022-10-05T11:10:58.897Z,11.38
2022-10-05T11:13:52.569Z,16.45
2022-10-05T11:16:48.410Z,17.63
2022-10-05T11:19:35.138Z,14.40
2022-10-05T11:24:50.158Z,9.10
2022-10-05T11:27:41.587Z,12.70
2022-10-05T11:30:52.232Z,13.88
2022-10-05T11:33:30.843Z,13.00
2022-10-05T11:36:16.204Z,13.07
2022-10-05T11:39:04.238Z,14.65
2022-10-05T11:41:51.807Z,16.13
2022-10-05T11:44:18.329Z,11.82
2022-10-05T11:46:47.576Z,15.77
2022-10-05T11:49:27.041Z,9.93
2022-10-05T11:52:12.969Z,12.20
2022-10-05T11:55:05.701Z,16.52
2022-10-05T11:57:37.806Z,12.32
2022-10-05T12:00:13.840Z,11.68
2022-10-05T12:02:59.825Z,10.32
2022-10-05T12:05:57.374Z,10.77
2022-10-05T12:09:03.623Z,12.38
2022-10-05T12:11:42.765Z,10.88
2022-10-05T12:14:48.793Z,10.43
2022-10-05T12:17:27.966Z,11.65
2022-10-05T12:20:13.180Z,8.68
2022-10-05T12:22:50.713Z,10.77
2022-10-05T12:25:33.670Z,15.00
2022-10-05T12:28:05.679Z,12.70
2022-10-05T12:30:47.698Z,12.05
2022-10-05T12:33:25.547Z,12.68
2022-10-05T12:36:12.052Z,10.07
2022-10-05T12:38:46.132Z,12.88
2022-10-05T12:41:38.456Z,11.52
2022-10-05T12:44:13.207Z,12.07
2022-10-05T12:46:48.927Z,8.05
2022-10-05T12:49:24.241Z,12.40
2022-10-05T12:51:57.911Z,11.70
2022-10-05T12:54:32.288Z,12.82
2022-10-05T12:57:06.154Z,14.18
2022-10-05T12:59:50.558Z,15.55
2022-10-05T13:02:29.219Z,12.82
2022-10-05T13:05:07.819Z,12.38
2022-10-05T13:07:38.586Z,12.20
2022-10-05T13:10:29.901Z,13.38
2022-10-05T13:13:34.259Z,9.75
2022-10-05T13:16:16.594Z,9.38
2022-10-05T13:19:14.410Z,10.32
2022-10-05T13:21:49.799Z,9.23
2022-10-05T13:24:26.656Z,7.63
2022-10-05T13:27:03.911Z,9.30
2022-10-05T13:29:54.494Z,11.32
2022-10-05T13:32:25.791Z,10.35
2022-10-05T13:35:01.250Z,8.02
2022-10-05T13:38:06.224Z,6.18
2022-10-05T13:40:58.084Z,9.43
2022-10-05T13:43:49.135Z,9.60
2022-10-05T13:46:34.627Z,6.93
2022-10-05T13:49:19.456Z,7.45
2022-10-05T13:52:01.399Z,10.52
2022-10-05T13:57:51.599Z,13.05
2022-10-05T14:00:26.620Z,6.90
2022-10-05T14:02:56.806Z,6.45
2022-10-05T14:05:28.704Z,11.05
2022-10-05T14:08:04.854Z,9.35
2022-10-05T14:10:53.773Z,8.85
2022-10-05T14:13:44.197Z,7.43
2022-10-05T14:16:13.662Z,9.40
2022-10-05T14:19:09.033Z,12.05
2022-10-05T14:22:24.732Z,10.98
2022-10-05T14:25:13.765Z,7.20
2022-10-05T14:28:24.163Z,8.85
2022-10-05T14:31:15.097Z,8.75
2022-10-05T14:33:42.208Z,9.53
2022-10-05T14:36:21.261Z,9.13
2022-10-05T14:38:57.944Z,6.10
2022-10-05T14:41:27.339Z,7.75
2022-10-05T14:44:05.369Z,7.13
2022-10-05T14:46:34.513Z,7.60
2022-10-05T14:49:37.346Z,9.48
2022-10-05T14:52:32.511Z,7.97
2022-10-05T14:55:06.990Z,7.20
2022-10-05T14:57:39.947Z,7.70
2022-10-05T15:00:12.511Z,7.97
2022-10-05T15:03:18.662Z,6.95
2022-10-05T15:05:45.103Z,8.43
2022-10-05T15:08:11.503Z,5.35
2022-10-05T15:10:56.706Z,7.88
2022-10-05T15:13:32.743Z,7.72
2022-10-05T15:16:33.560Z,6.32
2022-10-05T15:19:16.070Z,9.13
2022-10-05T15:21:45.367Z,8.63
2022-10-05T15:24:19.783Z,6.13
2022-10-05T15:26:50.576Z,8.18
2022-10-05T15:29:52.219Z,9.17
2022-10-05T15:32:58.002Z,10.90
2022-10-05T15:35:48.033Z,8.15
2022-10-05T15:38:23.176Z,10.30
2022-10-05T15:41:46.043Z,6.90
2022-10-05T15:44:26.009Z,9.67
2022-10-05T15:46:56.432Z,7.10
2022-10-05T15:49:37.044Z,7.75
2022-10-05T15:52:19.534Z,8.75
2022-10-05T15:55:07.193Z,6.70
2022-10-05T15:57:56.171Z,13.07
2022-10-05T16:00:25.290Z,13.20
2022-10-05T16:03:29.390Z,14.07
2022-10-05T16:06:47.277Z,8.77
2022-10-05T16:09:13.668Z,9.57
2022-10-05T16:11:59.022Z,4.82
2022-10-05T16:14:30.643Z,7.18
2022-10-05T16:17:16.462Z,6.32
2022-10-05T16:20:17.158Z,7.93
2022-10-05T16:22:51.440Z,7.13
2022-10-05T16:25:29.024Z,4.97
2022-10-05T16:28:17.922Z,8.30
2022-10-05T16:30:53.312Z,7.10
2022-10-05T16:33:54.292Z,12.55
2022-10-05T16:36:22.518Z,7.50
2022-10-05T16:39:03.449Z,6.63
2022-10-05T16:41:42.692Z,6.30
2022-10-05T16:44:24.519Z,8.73
2022-10-05T16:49:39.560Z,11.30
2022-10-05T16:52:13.747Z,6.63
2022-10-05T16:54:53.640Z,9.05
2022-10-05T16:57:24.999Z,16.80
2022-10-05T17:00:24.529Z,10.07
2022-10-05T17:03:04.837Z,18.05
2022-10-05T17:05:51.251Z,15.40
2022-10-05T17:08:51.823Z,11.65
2022-10-05T17:11:51.971Z,13.75
2022-10-05T17:14:36.906Z,18.73
2022-10-05T17:17:58.727Z,12.43
2022-10-05T17:20:46.403Z,16.00
2022-10-05T17:23:29.236Z,10.82
2022-10-05T17:26:04.332Z,14.38
2022-10-05T17:28:57.480Z,15.07
2022-10-05T17:31:27.825Z,13.70
2022-10-05T17:34:00.271Z,17.13
2022-10-05T17:36:57.809Z,18.08
2022-10-05T17:39:52.541Z,18.48
2022-10-05T17:42:34.310Z,15.38
2022-10-05T17:45:20.705Z,15.32
2022-10-05T17:48:03.288Z,15.55
2022-10-05T17:51:02.107Z,17.90
2022-10-05T17:54:05.396Z,20.75
2022-10-05T17:56:52.457Z,25.30
2022-10-05T17:59:46.274Z,22.35
2022-10-05T18:02:36.702Z,22.27
2022-10-05T18:05:04.204Z,17.90
2022-10-05T18:07:31.887Z,18.10
2022-10-05T18:10:00.378Z,23.73
2022-10-05T18:12:40.145Z,14.18
2022-10-05T18:15:06.564Z,21.85
2022-10-05T18:18:00.845Z,21.63
2022-10-05T18:20:32.351Z,18.85
2022-10-05T18:25:52.851Z,21.05
2022-10-05T18:28:35.558Z,19.40
2022-10-05T18:31:21.344Z,19.77
2022-10-05T18:34:21.106Z,22.20
2022-10-05T18:37:15.658Z,21.67
2022-10-05T18:40:23.600Z,23.67
2022-10-05T18:43:19.578Z,17.17
2022-10-05T18:46:08.063Z,18.15
2022-10-05T18:48:46.792Z,21.13
2022-10-05T18:51:28.470Z,19.52
2022-10-05T18:54:28.384Z,18.02
2022-10-05T18:56:54.885Z,17.58
2022-10-05T18:59:47.825Z,21.38
2022-10-05T19:02:38.392Z,22.17
2022-10-05T19:05:23.641Z,16.92
2022-10-05T19:08:42.507Z,20.05
2022-10-05T19:11:23.144Z,25.67
2022-10-05T19:14:14.040Z,29.60
2022-10-05T19:16:54.649Z,22.85
2022-10-05T19:19:42.666Z,29.38
2022-10-05T19:22:17.882Z,22.80
2022-10-05T19:25:24.107Z,24.50
2022-10-05T19:28:28.026Z,25.13
2022-10-05T19:31:13.077Z,24.88
2022-10-05T19:34:09.032Z,28.00
2022-10-05T19:36:53.740Z,25.38
2022-10-05T19:39:59.281Z,24.52
2022-10-05T19:42:53.128Z,26.23
2022-10-05T19:45:28.327Z,31.02
2022-10-05T19:48:03.960Z,31.38
2022-10-05T19:50:33.565Z,28.63
2022-10-05T19:53:14.446Z,26.77
2022-10-05T19:55:47.556Z,23.55
2022-10-05T19:58:25.341Z,22.63
2022-10-05T20:00:55.314Z,19.75
2022-10-05T20:03:29.890Z,20.42
2022-10-05T20:06:01.454Z,24.13
2022-10-05T20:08:39.830Z,20.48
2022-10-05T20:11:35.133Z,24.58
2022-10-05T20:14:01.685Z,22.85
2022-10-05T20:16:49.448Z,21.65
2022-10-05T20:19:54.016Z,24.23
2022-10-05T20:22:27.488Z,23.25
2022-10-05T20:24:56.712Z,23.77
2022-10-05T20:27:55.206Z,23.35
2022-10-05T20:30:27.385Z,18.27
2022-10-05T20:32:59.667Z,26.02
2022-10-05T20:35:30.536Z,16.90
2022-10-05T20:37:59.742Z,22.10
2022-10-05T20:40:30.243Z,16.13
2022-10-05T20:42:58.246Z,17.25
2022-10-05T20:45:25.191Z,19.17
2022-10-05T20:47:51.619Z,18.30
2022-10-05T20:50:18.366Z,15.73
2022-10-05T20:52:44.817Z,14.68
2022-10-05T20:55:12.564Z,21.98
2022-10-05T20:57:42.095Z,19.10
2022-10-05T21:00:10.353Z,19.42
2022-10-05T21:02:37.227Z,19.88
2022-10-05T21:05:04.674Z,17.10
2022-10-05T21:07:31.279Z,18.70
2022-10-05T21:09:57.755Z,21.25
2022-10-05T21:12:24.260Z,17.88
2022-10-05T21:14:52.592Z,14.25
2022-10-05T21:17:20.175Z,17.35
2022-10-05T21:19:47.417Z,16.52
2022-10-05T21:22:13.841Z,15.55
2022-10-05T21:24:41.023Z,16.60
2022-10-05T21:27:07.943Z,16.50
2022-10-05T21:29:36.422Z,17.83
2022-10-05T21:32:08.289Z,21.38
2022-10-05T21:37:01.607Z,16.50
2022-10-05T21:39:28.173Z,17.95
2022-10-05T21:41:54.651Z,18.48
2022-10-05T21:44:21.086Z,21.48
2022-10-05T21:46:48.388Z,23.27
2022-10-05T21:49:19.505Z,25.75
2022-10-05T21:51:47.217Z,22.73
2022-10-05T21:54:21.041Z,21.52
2022-10-05T21:56:51.368Z,21.25
2022-10-05T21:59:21.588Z,18.13
2022-10-05T22:01:48.018Z,20.83
2022-10-05T22:04:15.089Z,19.23
2022-10-05T22:06:41.535Z,22.65
2022-10-05T22:09:08.035Z,19.73
2022-10-05T22:11:34.533Z,22.90
2022-10-05T22:14:03.848Z,21.25
2022-10-05T22:16:33.414Z,23.40
2022-10-05T22:19:05.084Z,20.50
2022-10-05T22:21:34.211Z,27.52
2022-10-05T22:24:02.400Z,18.48
2022-10-05T22:26:29.003Z,22.50
2022-10-05T22:28:56.792Z,21.48
2022-10-05T22:31:24.077Z,23.20
2022-10-05T22:33:51.272Z,19.15
2022-10-05T22:36:18.154Z,23.35
2022-10-05T22:38:46.552Z,17.98
2022-10-05T22:41:14.402Z,16.27
2022-10-05T22:43:40.812Z,20.13
2022-10-05T22:46:09.713Z,21.55
2022-10-05T22:48:36.531Z,17.90
2022-10-05T22:51:03.099Z,18.70
2022-10-05T22:53:29.580Z,20.75
2022-10-05T22:55:56.024Z,21.00
2022-10-05T22:58:22.497Z,21.23
2022-10-05T23:00:58.694Z,21.98
2022-10-05T23:03:25.415Z,22.00
2022-10-05T23:06:00.636Z,24.83
2022-10-05T23:08:27.653Z,18.95
2022-10-05T23:10:54.578Z,14.07
2022-10-05T23:13:22.390Z,11.23
2022-10-05T23:15:49.088Z,15.10
2022-10-05T23:18:16.682Z,15.95
2022-10-05T23:20:43.158Z,15.13
2022-10-05T23:23:09.679Z,15.35
2022-10-05T23:25:36.502Z,17.83
2022-10-05T23:28:03.079Z,9.82
2022-10-05T23:30:29.653Z,13.57
2022-10-05T23:32:56.106Z,12.18
2022-10-05T23:35:22.516Z,11.50
2022-10-05T23:37:48.940Z,15.02
2022-10-05T23:40:15.451Z,9.50
2022-10-05T23:42:42.491Z,11.32
2022-10-05T23:45:11.286Z,11.15
2022-10-05T23:47:38.752Z,10.93
2022-10-05T23:50:07.042Z,11.45
2022-10-05T23:52:34.718Z,14.48
2022-10-05T23:55:05.220Z,11.45
2022-10-05T23:57:31.969Z,11.82
2022-10-05T23:59:58.474Z,10.52
